sensor_id;sensor_type;location;lat;lon;timestamp;P1;durP1;ratioP1;P2;durP2;ratioP2
57335;SDS011;43171;50.994;18.204;2023-06-14T00:02:40;3.20;;;2.70;;
57335;SDS011;43171;50.994;18.204;2023-06-14T00:12:29;6.30;;;3.70;;
57335;SDS011;43171;50.994;18.204;2023-06-14T00:22:14;3.50;;;2.30;;
57335;SDS011;43171;50.994;18.204;2023-06-14T00:31:58;3.00;;;2.40;;
57335;SDS011;43171;50.994;18.204;2023-06-14T00:41:40;6.00;;;2.60;;
57335;SDS011;43171;50.994;18.204;2023-06-14T00:51:24;3.00;;;2.70;;
57335;SDS011;43171;50.994;18.204;2023-06-14T01:01:07;7.30;;;2.40;;
57335;SDS011;43171;50.994;18.204;2023-06-14T01:11:32;5.80;;;4.00;;
57335;SDS011;43171;50.994;18.204;2023-06-14T01:21:34;3.90;;;2.80;;
57335;SDS011;43171;50.994;18.204;2023-06-14T01:31:29;4.20;;;3.80;;
57335;SDS011;43171;50.994;18.204;2023-06-14T01:41:21;4.80;;;3.70;;
57335;SDS011;43171;50.994;18.204;2023-06-14T01:51:04;4.70;;;3.10;;
57335;SDS011;43171;50.994;18.204;2023-06-14T02:00:46;7.20;;;2.90;;
57335;SDS011;43171;50.994;18.204;2023-06-14T02:10:30;2.90;;;2.60;;
57335;SDS011;43171;50.994;18.204;2023-06-14T02:20:18;6.70;;;4.50;;
57335;SDS011;43171;50.994;18.204;2023-06-14T02:22:44;14.40;;;9.10;;
57335;SDS011;43171;50.994;18.204;2023-06-14T02:32:27;1.70;;;1.00;;
57335;SDS011;43171;50.994;18.204;2023-06-14T02:42:10;4.00;;;3.60;;
57335;SDS011;43171;50.994;18.204;2023-06-14T02:44:36;12.90;;;9.10;;
57335;SDS011;43171;50.994;18.204;2023-06-14T02:54:18;9.00;;;6.20;;
57335;SDS011;43171;50.994;18.204;2023-06-14T03:04:06;2.30;;;1.80;;
57335;SDS011;43171;50.994;18.204;2023-06-14T03:13:51;6.50;;;4.20;;
57335;SDS011;43171;50.994;18.204;2023-06-14T03:23:37;4.60;;;3.60;;
57335;SDS011;43171;50.994;18.204;2023-06-14T03:33:18;2.40;;;2.30;;
57335;SDS011;43171;50.994;18.204;2023-06-14T03:43:00;5.10;;;4.60;;
57335;SDS011;43171;50.994;18.204;2023-06-14T03:52:43;7.80;;;5.60;;
57335;SDS011;43171;50.994;18.204;2023-06-14T04:02:30;6.50;;;5.00;;
57335;SDS011;43171;50.994;18.204;2023-06-14T04:12:13;6.80;;;5.30;;
57335;SDS011;43171;50.994;18.204;2023-06-14T04:21:56;5.40;;;2.60;;
57335;SDS011;43171;50.994;18.204;2023-06-14T04:31:44;9.10;;;6.10;;
57335;SDS011;43171;50.994;18.204;2023-06-14T04:41:33;6.90;;;5.50;;
57335;SDS011;43171;50.994;18.204;2023-06-14T04:51:22;7.10;;;5.30;;
57335;SDS011;43171;50.994;18.204;2023-06-14T05:01:13;5.60;;;5.10;;
57335;SDS011;43171;50.994;18.204;2023-06-14T05:10:56;7.90;;;6.10;;
57335;SDS011;43171;50.994;18.204;2023-06-14T05:20:40;8.30;;;5.10;;
57335;SDS011;43171;50.994;18.204;2023-06-14T05:30:24;9.60;;;5.00;;
57335;SDS011;43171;50.994;18.204;2023-06-14T05:40:07;6.40;;;4.90;;
57335;SDS011;43171;50.994;18.204;2023-06-14T05:49:53;8.30;;;5.90;;
57335;SDS011;43171;50.994;18.204;2023-06-14T05:59:37;7.50;;;5.60;;
57335;SDS011;43171;50.994;18.204;2023-06-14T06:09:19;5.50;;;3.60;;
57335;SDS011;43171;50.994;18.204;2023-06-14T06:19:01;13.40;;;4.10;;
57335;SDS011;43171;50.994;18.204;2023-06-14T06:28:47;6.00;;;5.10;;
57335;SDS011;43171;50.994;18.204;2023-06-14T06:38:30;3.00;;;2.80;;
57335;SDS011;43171;50.994;18.204;2023-06-14T06:48:12;8.00;;;5.40;;
57335;SDS011;43171;50.994;18.204;2023-06-14T06:57:56;5.50;;;4.40;;
57335;SDS011;43171;50.994;18.204;2023-06-14T07:07:38;6.00;;;5.00;;
57335;SDS011;43171;50.994;18.204;2023-06-14T07:17:24;6.30;;;4.90;;
57335;SDS011;43171;50.994;18.204;2023-06-14T07:27:08;5.20;;;4.40;;
57335;SDS011;43171;50.994;18.204;2023-06-14T07:36:52;3.50;;;3.20;;
57335;SDS011;43171;50.994;18.204;2023-06-14T07:46:36;5.00;;;3.90;;
57335;SDS011;43171;50.994;18.204;2023-06-14T07:56:19;5.30;;;4.80;;
57335;SDS011;43171;50.994;18.204;2023-06-14T08:06:02;4.40;;;3.80;;
57335;SDS011;43171;50.994;18.204;2023-06-14T08:10:53;9.50;;;7.60;;
57335;SDS011;43171;50.994;18.204;2023-06-14T08:20:36;6.20;;;5.30;;
57335;SDS011;43171;50.994;18.204;2023-06-14T08:30:21;4.70;;;3.70;;
57335;SDS011;43171;50.994;18.204;2023-06-14T08:40:08;5.20;;;3.70;;
57335;SDS011;43171;50.994;18.204;2023-06-14T08:50:02;5.80;;;5.20;;
57335;SDS011;43171;50.994;18.204;2023-06-14T08:59:47;4.70;;;4.20;;
57335;SDS011;43171;50.994;18.204;2023-06-14T09:09:38;2.80;;;2.60;;
57335;SDS011;43171;50.994;18.204;2023-06-14T09:19:26;4.20;;;3.90;;
57335;SDS011;43171;50.994;18.204;2023-06-14T09:29:11;4.20;;;2.70;;
57335;SDS011;43171;50.994;18.204;2023-06-14T09:38:57;5.30;;;3.20;;
57335;SDS011;43171;50.994;18.204;2023-06-14T09:48:54;7.60;;;3.30;;
57335;SDS011;43171;50.994;18.204;2023-06-14T09:58:41;3.60;;;3.30;;
57335;SDS011;43171;50.994;18.204;2023-06-14T10:08:27;3.60;;;3.10;;
57335;SDS011;43171;50.994;18.204;2023-06-14T10:18:19;4.30;;;3.70;;
57335;SDS011;43171;50.994;18.204;2023-06-14T10:28:25;10.50;;;3.80;;
57335;SDS011;43171;50.994;18.204;2023-06-14T10:39:06;6.10;;;4.30;;
57335;SDS011;43171;50.994;18.204;2023-06-14T10:49:17;5.30;;;4.30;;
57335;SDS011;43171;50.994;18.204;2023-06-14T10:59:17;5.60;;;3.50;;
57335;SDS011;43171;50.994;18.204;2023-06-14T11:19:39;9.50;;;3.00;;
57335;SDS011;43171;50.994;18.204;2023-06-14T11:29:23;8.90;;;4.90;;
57335;SDS011;43171;50.994;18.204;2023-06-14T11:39:07;5.20;;;4.70;;
57335;SDS011;43171;50.994;18.204;2023-06-14T11:49:08;5.30;;;4.80;;
57335;SDS011;43171;50.994;18.204;2023-06-14T11:58:53;10.10;;;4.60;;
57335;SDS011;43171;50.994;18.204;2023-06-14T12:08:40;5.20;;;4.70;;
57335;SDS011;43171;50.994;18.204;2023-06-14T12:18:32;6.80;;;5.90;;
57335;SDS011;43171;50.994;18.204;2023-06-14T12:28:40;6.90;;;5.20;;
57335;SDS011;43171;50.994;18.204;2023-06-14T12:38:32;4.80;;;3.90;;
57335;SDS011;43171;50.994;18.204;2023-06-14T12:48:15;5.90;;;5.30;;
57335;SDS011;43171;50.994;18.204;2023-06-14T12:57:57;7.30;;;5.50;;
57335;SDS011;43171;50.994;18.204;2023-06-14T13:07:39;3.50;;;2.50;;
57335;SDS011;43171;50.994;18.204;2023-06-14T13:17:21;4.50;;;3.50;;
57335;SDS011;43171;50.994;18.204;2023-06-14T13:27:04;3.70;;;2.60;;
57335;SDS011;43171;50.994;18.204;2023-06-14T13:36:49;3.20;;;2.50;;
57335;SDS011;43171;50.994;18.204;2023-06-14T13:46:32;4.80;;;1.90;;
57335;SDS011;43171;50.994;18.204;2023-06-14T13:56:14;3.00;;;2.00;;
57335;SDS011;43171;50.994;18.204;2023-06-14T14:06:00;2.20;;;1.90;;
57335;SDS011;43171;50.994;18.204;2023-06-14T14:15:43;2.90;;;2.40;;
57335;SDS011;43171;50.994;18.204;2023-06-14T14:25:27;5.40;;;2.50;;
57335;SDS011;43171;50.994;18.204;2023-06-14T14:35:16;1.90;;;1.80;;
57335;SDS011;43171;50.994;18.204;2023-06-14T14:45:01;1.60;;;1.50;;
57335;SDS011;43171;50.994;18.204;2023-06-14T14:54:43;4.00;;;3.10;;
57335;SDS011;43171;50.994;18.204;2023-06-14T15:04:25;3.20;;;2.90;;
57335;SDS011;43171;50.994;18.204;2023-06-14T15:14:09;3.40;;;3.10;;
57335;SDS011;43171;50.994;18.204;2023-06-14T15:23:52;6.80;;;4.20;;
57335;SDS011;43171;50.994;18.204;2023-06-14T15:33:35;4.40;;;4.00;;
57335;SDS011;43171;50.994;18.204;2023-06-14T15:43:17;7.60;;;5.70;;
57335;SDS011;43171;50.994;18.204;2023-06-14T15:53:01;1.00;;;1.00;;
57335;SDS011;43171;50.994;18.204;2023-06-14T16:02:45;4.80;;;3.90;;
57335;SDS011;43171;50.994;18.204;2023-06-14T16:12:29;2.10;;;2.00;;
57335;SDS011;43171;50.994;18.204;2023-06-14T16:22:14;5.20;;;4.00;;
57335;SDS011;43171;50.994;18.204;2023-06-14T16:31:59;6.30;;;4.60;;
57335;SDS011;43171;50.994;18.204;2023-06-14T16:41:42;5.40;;;4.40;;
57335;SDS011;43171;50.994;18.204;2023-06-14T16:51:25;4.90;;;4.40;;
57335;SDS011;43171;50.994;18.204;2023-06-14T17:01:09;4.30;;;3.80;;
57335;SDS011;43171;50.994;18.204;2023-06-14T17:10:52;12.10;;;3.50;;
57335;SDS011;43171;50.994;18.204;2023-06-14T17:20:37;11.40;;;6.60;;
57335;SDS011;43171;50.994;18.204;2023-06-14T17:30:20;3.50;;;3.20;;
57335;SDS011;43171;50.994;18.204;2023-06-14T17:40:05;9.70;;;6.10;;
57335;SDS011;43171;50.994;18.204;2023-06-14T17:49:50;8.90;;;6.50;;
57335;SDS011;43171;50.994;18.204;2023-06-14T17:59:36;10.30;;;6.00;;
57335;SDS011;43171;50.994;18.204;2023-06-14T18:09:19;8.10;;;5.90;;
57335;SDS011;43171;50.994;18.204;2023-06-14T18:19:04;7.30;;;6.50;;
57335;SDS011;43171;50.994;18.204;2023-06-14T18:28:48;6.70;;;6.00;;
57335;SDS011;43171;50.994;18.204;2023-06-14T18:38:32;3.70;;;3.30;;
57335;SDS011;43171;50.994;18.204;2023-06-14T18:48:14;7.20;;;5.30;;
57335;SDS011;43171;50.994;18.204;2023-06-14T18:50:40;16.40;;;12.20;;
57335;SDS011;43171;50.994;18.204;2023-06-14T19:00:22;8.30;;;6.30;;
57335;SDS011;43171;50.994;18.204;2023-06-14T19:10:04;11.20;;;5.30;;
57335;SDS011;43171;50.994;18.204;2023-06-14T19:19:48;17.40;;;7.30;;
57335;SDS011;43171;50.994;18.204;2023-06-14T19:29:31;9.60;;;5.60;;
57335;SDS011;43171;50.994;18.204;2023-06-14T19:39:15;3.20;;;2.90;;
57335;SDS011;43171;50.994;18.204;2023-06-14T19:49:02;8.60;;;7.10;;
57335;SDS011;43171;50.994;18.204;2023-06-14T19:58:46;7.80;;;5.30;;
57335;SDS011;43171;50.994;18.204;2023-06-14T20:08:32;10.00;;;5.20;;
57335;SDS011;43171;50.994;18.204;2023-06-14T20:18:14;7.60;;;6.30;;
57335;SDS011;43171;50.994;18.204;2023-06-14T20:28:00;8.20;;;5.10;;
57335;SDS011;43171;50.994;18.204;2023-06-14T20:37:42;6.20;;;5.50;;
57335;SDS011;43171;50.994;18.204;2023-06-14T20:54:44;18.00;;;12.00;;
57335;SDS011;43171;50.994;18.204;2023-06-14T21:04:43;9.20;;;8.20;;
57335;SDS011;43171;50.994;18.204;2023-06-14T21:14:26;8.80;;;7.90;;
57335;SDS011;43171;50.994;18.204;2023-06-14T21:24:09;8.60;;;7.30;;
57335;SDS011;43171;50.994;18.204;2023-06-14T21:41:08;14.00;;;7.10;;
57335;SDS011;43171;50.994;18.204;2023-06-14T21:50:53;13.40;;;8.40;;
57335;SDS011;43171;50.994;18.204;2023-06-14T22:00:35;0.90;;;0.90;;
57335;SDS011;43171;50.994;18.204;2023-06-14T22:10:17;11.20;;;8.40;;
57335;SDS011;43171;50.994;18.204;2023-06-14T22:20:02;12.10;;;8.60;;
57335;SDS011;43171;50.994;18.204;2023-06-14T22:29:48;8.60;;;7.40;;
57335;SDS011;43171;50.994;18.204;2023-06-14T22:39:32;12.80;;;10.60;;
57335;SDS011;43171;50.994;18.204;2023-06-14T22:49:21;12.10;;;10.00;;
57335;SDS011;43171;50.994;18.204;2023-06-14T22:59:11;12.50;;;9.70;;
57335;SDS011;43171;50.994;18.204;2023-06-14T23:08:55;27.90;;;13.00;;
57335;SDS011;43171;50.994;18.204;2023-06-14T23:18:43;21.90;;;14.00;;
57335;SDS011;43171;50.994;18.204;2023-06-14T23:28:35;28.00;;;15.20;;
57335;SDS011;43171;50.994;18.204;2023-06-14T23:38:26;18.90;;;13.70;;
57335;SDS011;43171;50.994;18.204;2023-06-14T23:48:18;21.70;;;15.10;;
57335;SDS011;43171;50.994;18.204;2023-06-14T23:58:05;29.20;;;16.60;;
